LVBXR SADM-SADM

Flight info

Callsign LVBXR
Flight time 0h 28m
Altitude 3000
Route AR DCT SADR
Aircraft C152/L-SDGRWY/L

Departure

Time 2026-04-12 20:57
Airport Morón Airport (SADM)

Arrival

Time 2026-04-12 21:26
Airport Morón Airport (SADM)
Time Latitude Longitude Altitude Speed Heading
2026-04-12 20:42 -34.66377 -58.64170 87 ft 0 kts 285°
2026-04-12 20:44 -34.66377 -58.64169 87 ft 0 kts 285°
2026-04-12 20:51 -34.66376 -58.64170 87 ft 2 kts 285°
2026-04-12 20:51 -34.66313 -58.64161 86 ft 5 kts 45°
2026-04-12 20:51 -34.66318 -58.64128 87 ft 7 kts 107°
2026-04-12 20:51 -34.66339 -58.64025 87 ft 18 kts 103°
2026-04-12 20:52 -34.66393 -58.63869 88 ft 20 kts 118°
2026-04-12 20:52 -34.66482 -58.63750 88 ft 18 kts 131°
2026-04-12 20:52 -34.66594 -58.63730 87 ft 19 kts 193°
2026-04-12 20:52 -34.66739 -58.63772 89 ft 23 kts 191°
2026-04-12 20:53 -34.66903 -58.63817 90 ft 25 kts 193°
2026-04-12 20:53 -34.67057 -58.63864 90 ft 22 kts 191°
2026-04-12 20:53 -34.67195 -58.63902 92 ft 20 kts 192°
2026-04-12 20:53 -34.67337 -58.63942 92 ft 24 kts 191°
2026-04-12 20:54 -34.67522 -58.63997 94 ft 30 kts 194°
2026-04-12 20:54 -34.67734 -58.64059 94 ft 33 kts 192°
2026-04-12 20:54 -34.67917 -58.64122 95 ft 35 kts 195°
2026-04-12 20:54 -34.67194 -58.63960 90 ft 534 kts 192°
2026-04-12 20:55 -34.66836 -58.64061 87 ft 0 kts 192°
2026-04-12 20:55 -34.66883 -58.64068 87 ft 9 kts 193°
2026-04-12 20:56 -34.66943 -58.64084 87 ft 5 kts 192°
2026-04-12 20:56 -34.67034 -58.64109 88 ft 37 kts 193°
2026-04-12 20:56 -34.67430 -58.64221 120 ft 73 kts 189°
2026-04-12 20:56 -34.67953 -58.64373 240 ft 81 kts 191°
2026-04-12 20:57 -34.68506 -58.64531 391 ft 80 kts 190°
2026-04-12 20:57 -34.69030 -58.64700 550 ft 79 kts 192°
2026-04-12 20:57 -34.69584 -58.64813 682 ft 80 kts 186°
2026-04-12 20:57 -34.70139 -58.64908 808 ft 82 kts 187°
2026-04-12 20:58 -34.70689 -58.65028 955 ft 80 kts 200°
2026-04-12 20:58 -34.71188 -58.65279 1157 ft 74 kts 200°
2026-04-12 20:58 -34.71693 -58.65441 1293 ft 79 kts 192°
2026-04-12 20:58 -34.72242 -58.65548 1416 ft 81 kts 185°
2026-04-12 20:59 -34.72803 -58.65606 1577 ft 77 kts 194°
2026-04-12 20:59 -34.73238 -58.65997 1697 ft 81 kts 231°
2026-04-12 20:59 -34.73574 -58.66521 1837 ft 78 kts 228°
2026-04-12 20:59 -34.73962 -58.67001 1953 ft 80 kts 220°
2026-04-12 21:00 -34.74328 -58.67532 2080 ft 81 kts 231°
2026-04-12 21:00 -34.74666 -58.68095 2169 ft 86 kts 233°
2026-04-12 21:00 -34.75023 -58.68710 2178 ft 92 kts 239°
2026-04-12 21:00 -34.75321 -58.69409 2114 ft 96 kts 243°
2026-04-12 21:01 -34.75642 -58.70138 2047 ft 94 kts 240°
2026-04-12 21:01 -34.75984 -58.70795 2052 ft 92 kts 236°
2026-04-12 21:01 -34.76286 -58.71453 2064 ft 90 kts 250°
2026-04-12 21:01 -34.76449 -58.72185 2061 ft 90 kts 258°
2026-04-12 21:02 -34.76569 -58.72931 2048 ft 91 kts 258°
2026-04-12 21:02 -34.76686 -58.73705 1996 ft 93 kts 258°
2026-04-12 21:02 -34.76800 -58.74470 1983 ft 91 kts 259°
2026-04-12 21:02 -34.76914 -58.75219 1975 ft 90 kts 259°
2026-04-12 21:03 -34.77027 -58.75958 1981 ft 89 kts 256°
2026-04-12 21:03 -34.77150 -58.76684 1970 ft 88 kts 257°
2026-04-12 21:03 -34.77277 -58.77420 1980 ft 89 kts 256°
2026-04-12 21:03 -34.77402 -58.78148 2013 ft 89 kts 258°
2026-04-12 21:04 -34.77509 -58.78906 1983 ft 91 kts 260°
2026-04-12 21:04 -34.77601 -58.79671 1975 ft 90 kts 261°
2026-04-12 21:04 -34.77693 -58.80416 1999 ft 89 kts 259°
2026-04-12 21:04 -34.77789 -58.81173 1966 ft 94 kts 260°
2026-04-12 21:05 -34.77888 -58.81946 1973 ft 91 kts 260°
2026-04-12 21:05 -34.77962 -58.82700 1987 ft 90 kts 261°
2026-04-12 21:05 -34.78030 -58.83456 2016 ft 90 kts 261°
2026-04-12 21:05 -34.78107 -58.84210 2028 ft 90 kts 260°
2026-04-12 21:06 -34.78251 -58.84944 2039 ft 90 kts 252°
2026-04-12 21:06 -34.78422 -58.85683 2003 ft 91 kts 254°
2026-04-12 21:06 -34.78579 -58.86441 1968 ft 93 kts 254°
2026-04-12 21:06 -34.78755 -58.87195 1939 ft 92 kts 252°
2026-04-12 21:07 -34.78943 -58.87938 1910 ft 92 kts 251°
2026-04-12 21:07 -34.79118 -58.88644 1968 ft 86 kts 252°
2026-04-12 21:07 -34.79297 -58.89351 1976 ft 87 kts 257°
2026-04-12 21:07 -34.79148 -58.90032 2010 ft 89 kts 313°
2026-04-12 21:08 -34.78534 -58.90209 1963 ft 99 kts 13°
2026-04-12 21:08 -34.77949 -58.89791 1972 ft 96 kts 37°
2026-04-12 21:08 -34.77421 -58.89301 1979 ft 95 kts 40°
2026-04-12 21:08 -34.76901 -58.88832 2012 ft 90 kts 27°
2026-04-12 21:09 -34.76327 -58.88508 2000 ft 93 kts 25°
2026-04-12 21:09 -34.75738 -58.88177 1981 ft 94 kts 26°
2026-04-12 21:09 -34.75147 -58.87847 2012 ft 93 kts 24°
2026-04-12 21:09 -34.74566 -58.87510 1990 ft 95 kts 25°
2026-04-12 21:10 -34.73973 -58.87167 1966 ft 95 kts 26°
2026-04-12 21:10 -34.73382 -58.86799 1981 ft 95 kts 27°
2026-04-12 21:10 -34.72782 -58.86439 1960 ft 98 kts 26°
2026-04-12 21:10 -34.72172 -58.86094 1976 ft 96 kts 25°
2026-04-12 21:11 -34.71564 -58.85733 1942 ft 99 kts 26°
2026-04-12 21:11 -34.70941 -58.85369 1915 ft 98 kts 21°
2026-04-12 21:11 -34.70308 -58.85127 1962 ft 93 kts 17°
2026-04-12 21:11 -34.69691 -58.84890 1990 ft 93 kts 17°
2026-04-12 21:12 -34.69064 -58.84663 1995 ft 95 kts 14°
2026-04-12 21:12 -34.68423 -58.84464 2010 ft 95 kts 15°
2026-04-12 21:12 -34.67774 -58.84260 2039 ft 96 kts 15°
2026-04-12 21:12 -34.67144 -58.84026 2044 ft 96 kts 17°
2026-04-12 21:13 -34.66504 -58.83781 2020 ft 97 kts 17°
2026-04-12 21:13 -34.65868 -58.83529 2002 ft 97 kts 19°
2026-04-12 21:13 -34.65239 -58.83255 1993 ft 96 kts 20°
2026-04-12 21:13 -34.64603 -58.82982 1979 ft 96 kts 19°
2026-04-12 21:14 -34.63971 -58.82720 1937 ft 97 kts 20°
2026-04-12 21:14 -34.63331 -58.82431 1918 ft 97 kts 21°
2026-04-12 21:14 -34.62698 -58.82128 1855 ft 99 kts 24°
2026-04-12 21:14 -34.62093 -58.81795 1895 ft 93 kts 25°
2026-04-12 21:15 -34.61578 -58.81478 1940 ft 77 kts 28°
2026-04-12 21:15 -34.61096 -58.81154 1953 ft 81 kts 31°
2026-04-12 21:15 -34.60570 -58.80860 1990 ft 83 kts
2026-04-12 21:15 -34.60003 -58.80890 2011 ft 88 kts 17°
2026-04-12 21:16 -34.59433 -58.80579 2022 ft 92 kts 24°
2026-04-12 21:16 -34.58831 -58.80267 2024 ft 96 kts 23°
2026-04-12 21:16 -34.58222 -58.79968 2049 ft 96 kts 22°
2026-04-12 21:16 -34.57603 -58.79626 1992 ft 99 kts 25°
2026-04-12 21:17 -34.57038 -58.79158 1987 ft 99 kts 57°
2026-04-12 21:17 -34.56989 -58.78366 1933 ft 97 kts 120°
2026-04-12 21:17 -34.57388 -58.77730 1933 ft 94 kts 134°
2026-04-12 21:17 -34.57821 -58.77154 1934 ft 92 kts 134°
2026-04-12 21:18 -34.58231 -58.76548 1920 ft 93 kts 133°
2026-04-12 21:18 -34.58639 -58.75967 1949 ft 83 kts 134°
2026-04-12 21:18 -34.59028 -58.75481 1951 ft 81 kts 138°
2026-04-12 21:18 -34.59435 -58.74983 2010 ft 83 kts 138°
2026-04-12 21:19 -34.59831 -58.74532 2029 ft 75 kts 142°
2026-04-12 21:19 -34.60212 -58.74109 2030 ft 74 kts 139°
2026-04-12 21:19 -34.60614 -58.73705 2014 ft 76 kts 145°
2026-04-12 21:19 -34.61073 -58.73316 1941 ft 88 kts 151°
2026-04-12 21:20 -34.61573 -58.72875 1912 ft 90 kts 136°
2026-04-12 21:20 -34.61916 -58.72212 1857 ft 94 kts 126°
2026-04-12 21:20 -34.62331 -58.71672 1842 ft 83 kts 163°
2026-04-12 21:20 -34.62897 -58.71665 1809 ft 84 kts 185°
2026-04-12 21:21 -34.63472 -58.71713 1935 ft 80 kts 184°
2026-04-12 21:21 -34.64035 -58.71731 1997 ft 83 kts 183°
2026-04-12 21:21 -34.64619 -58.71753 2017 ft 85 kts 183°
2026-04-12 21:21 -34.65224 -58.71800 1992 ft 87 kts 187°
2026-04-12 21:22 -34.65826 -58.71874 2048 ft 85 kts 183°
2026-04-12 21:22 -34.66403 -58.71702 2074 ft 87 kts 154°
2026-04-12 21:22 -34.66880 -58.71243 2074 ft 91 kts 138°
2026-04-12 21:22 -34.67230 -58.70606 2108 ft 92 kts 119°
2026-04-12 21:23 -34.67507 -58.69925 1952 ft 92 kts 121°
2026-04-12 21:23 -34.67808 -58.69223 1729 ft 95 kts 125°
2026-04-12 21:23 -34.68130 -58.68530 1532 ft 94 kts 121°
2026-04-12 21:23 -34.68451 -58.67841 1320 ft 94 kts 117°
2026-04-12 21:24 -34.68597 -58.67079 1149 ft 93 kts 93°
2026-04-12 21:24 -34.68331 -58.66394 1037 ft 92 kts 40°
2026-04-12 21:24 -34.67807 -58.66001 974 ft 88 kts 30°
2026-04-12 21:24 -34.67231 -58.65609 889 ft 99 kts 31°
2026-04-12 21:25 -34.66637 -58.65186 815 ft 100 kts 33°
2026-04-12 21:25 -34.66175 -58.64623 722 ft 92 kts 66°
2026-04-12 21:25 -34.66227 -58.63900 450 ft 88 kts 143°
2026-04-12 21:25 -34.66783 -58.64045 151 ft 82 kts 195°
2026-04-12 21:26 -34.67284 -58.64190 92 ft 62 kts 192°
2026-04-12 21:26 -34.67640 -58.64236 95 ft 11 kts 107°
2026-04-12 21:26 -34.67650 -58.64154 94 ft 0 kts 98°
2026-04-12 21:27 -34.67651 -58.64149 94 ft 6 kts 99°
2026-04-12 21:27 -34.67660 -58.64036 93 ft 5 kts 74°
2026-04-12 21:27 -34.67599 -58.64023 93 ft 14 kts 15°
2026-04-12 21:27 -34.67490 -58.63990 93 ft 17 kts 12°
2026-04-12 21:28 -34.67379 -58.63957 93 ft 16 kts 16°
2026-04-12 21:28 -34.67271 -58.63926 91 ft 16 kts 11°
2026-04-12 21:28 -34.67167 -58.63897 91 ft 15 kts 13°
2026-04-12 21:28 -34.67068 -58.63867 90 ft 15 kts 14°
2026-04-12 21:29 -34.66956 -58.63832 90 ft 17 kts 13°
2026-04-12 21:29 -34.66843 -58.63800 90 ft 16 kts 12°
2026-04-12 21:29 -34.66737 -58.63771 89 ft 15 kts 11°
2026-04-12 21:29 -34.66635 -58.63745 88 ft 15 kts 12°
2026-04-12 21:30 -34.66537 -58.63717 88 ft 14 kts
2026-04-12 21:30 -34.66459 -58.63768 89 ft 13 kts 309°
2026-04-12 21:30 -34.66399 -58.63867 87 ft 16 kts 305°
2026-04-12 21:30 -34.66350 -58.63988 87 ft 16 kts 280°
2026-04-12 21:31 -34.66330 -58.64114 90 ft 12 kts 270°
2026-04-12 21:31 -34.66349 -58.64135 88 ft 9 kts 190°
2026-04-12 21:31 -34.66393 -58.64152 87 ft 6 kts 271°
2026-04-12 21:31 -34.66390 -58.64173 88 ft 0 kts 287°